| time (UTC) | temp C | wind direction | speed KPH | gust KPH | rain 1hr cm | rain 24hr cm | rain mn cm | humidity % | barometer mb |
| 20260507084243 | 8 | 126 | 0.0 | 1.6 | 0.48 | 0.30 | 0.30 | 99 | 1011.9 |
| 20260507083741 | 8 | 135 | 1.6 | 3.2 | 0.30 | 0.25 | 0.25 | 99 | 1012.0 |
| 20260507083238 | 8 | 348 | 4.8 | 8.0 | 0.30 | 0.23 | 0.23 | 99 | 1011.7 |
| 20260507082734 | 8 | 147 | 1.6 | 3.2 | 0.30 | 0.20 | 0.20 | 99 | 1012.2 |
| 20260507082229 | 8 | 145 | 1.6 | 1.6 | 0.13 | 0.18 | 0.18 | 99 | 1011.8 |
| 20260507081727 | 9 | 160 | 3.2 | 4.8 | 0.00 | 0.15 | 0.15 | 99 | 1012.0 |
| 20260507081222 | 9 | 159 | 1.6 | 8.0 | 0.00 | 0.15 | 0.15 | 99 | 1012.1 |
| 20260507080719 | 9 | 151 | 1.6 | 1.6 | 0.18 | 0.15 | 0.15 | 99 | 1012.0 |
| 20260507080215 | 9 | 151 | 0.0 | 1.6 | 0.18 | 0.15 | 0.15 | 99 | 1011.8 |
| 20260507075711 | 9 | 151 | 0.0 | 0.0 | 0.18 | 0.13 | 0.13 | 99 | 1011.9 |
| 20260507075208 | 9 | 186 | 1.6 | 3.2 | 0.13 | 0.10 | 0.10 | 99 | 1011.7 |
| 20260507074704 | 9 | 128 | 0.0 | 3.2 | 0.13 | 0.10 | 0.10 | 99 | 1011.8 |
| 20260507074203 | 10 | 128 | 0.0 | 1.6 | 0.00 | 0.08 | 0.08 | 99 | 1012.0 |
| 20260507073658 | 10 | 128 | 1.6 | 3.2 | 0.00 | 0.08 | 0.08 | 99 | 1012.1 |
| 20260507073154 | 10 | 161 | 1.6 | 3.2 | 0.00 | 0.08 | 0.08 | 99 | 1011.7 |
| 20260507072653 | 10 | 230 | 8.0 | 12.9 | 0.18 | 0.08 | 0.08 | 99 | 1012.0 |
| 20260507072150 | 10 | 144 | 1.6 | 3.2 | 0.18 | 0.08 | 0.08 | 99 | 1011.8 |
| 20260507071648 | 10 | 143 | 1.6 | 3.2 | 0.13 | 0.05 | 0.05 | 99 | 1011.7 |
| 20260507071143 | 10 | 156 | 1.6 | 3.2 | 0.13 | 0.05 | 0.05 | 99 | 1011.7 |
| 20260507070641 | 10 | 161 | 1.6 | 8.0 | 0.00 | 0.03 | 0.03 | 99 | 1011.7 |
| 20260507070137 | 10 | 163 | 1.6 | 3.2 | 0.00 | 0.03 | 0.03 | 99 | 1011.3 |
| 20260507065634 | 10 | 163 | 1.6 | 3.2 | 0.00 | 0.03 | 0.03 | 99 | 1011.2 |
| 20260507065131 | 10 | 163 | 1.6 | 1.6 | 0.00 | 0.03 | 0.03 | 99 | 1010.9 |
| 20260507064628 | 10 | 162 | 1.6 | 3.2 | 0.00 | 0.03 | 0.03 | 99 | 1010.9 |
| 20260507064127 | 10 | 134 | 1.6 | 3.2 | 0.00 | 0.03 | 0.03 | 99 | 1010.8 |
| 20260507063624 | 10 | 134 | 1.6 | 1.6 | 0.00 | 0.03 | 0.03 | 99 | 1011.1 |
| 20260507063121 | 10 | 1 | 1.6 | 3.2 | 0.00 | 0.03 | 0.03 | 99 | 1010.8 |
| 20260507062617 | 10 | 291 | 4.8 | 4.8 | 0.00 | 0.03 | 0.03 | 99 | 1010.8 |
| 20260507062115 | 10 | 287 | 0.0 | 3.2 | 0.00 | 0.03 | 0.03 | 99 | 1010.8 |
| 20260507061613 | 10 | 219 | 4.8 | 4.8 | 0.00 | 0.03 | 0.03 | 99 | 1010.9 |
| 20260507061111 | 10 | 159 | 1.6 | 3.2 | 0.00 | 0.03 | 0.03 | 99 | 1011.1 |
| 20260507060609 | 10 | 162 | 0.0 | 4.8 | 0.00 | 0.03 | 0.03 | 99 | 1011.4 |
| 20260507060105 | 10 | 168 | 1.6 | 1.6 | 0.00 | 0.03 | 0.03 | 99 | 1011.3 |
| 20260507055600 | 10 | 163 | 3.2 | 4.8 | 0.00 | 0.03 | 0.03 | 99 | 1011.2 |
| 20260507055056 | 11 | 167 | 1.6 | 1.6 | 0.00 | 0.03 | 0.03 | 99 | 1011.1 |
| 20260507054552 | 11 | 158 | 1.6 | 3.2 | 0.00 | 0.03 | 0.03 | 99 | 1011.2 |
| 20260507054050 | 11 | 159 | 1.6 | 3.2 | 0.00 | 0.03 | 0.03 | 99 | 1011.2 |
| 20260507053548 | 11 | 166 | 1.6 | 4.8 | 0.00 | 0.03 | 0.03 | 99 | 1011.3 |
| 20260507053046 | 11 | 165 | 0.0 | 1.6 | 0.00 | 0.03 | 0.03 | 99 | 1011.3 |
| 20260507052543 | 11 | 244 | 4.8 | 8.0 | 0.00 | 0.03 | 0.03 | 99 | 1011.1 |
| 20260507052040 | 11 | 166 | 0.0 | 4.8 | 0.00 | 0.03 | 0.03 | 99 | 1011.6 |
| 20260507051538 | 11 | 161 | 1.6 | 3.2 | 0.00 | 0.03 | 0.03 | 99 | 1011.6 |
| 20260507051034 | 11 | 151 | 0.0 | 3.2 | 0.00 | 0.03 | 0.03 | 99 | 1011.7 |
| 20260507050531 | 11 | 133 | 1.6 | 4.8 | 0.00 | 0.03 | 0.03 | 99 | 1011.7 |
| 20260507050027 | 11 | 161 | 1.6 | 4.8 | 0.00 | 0.03 | 0.03 | 99 | 1011.5 |
| 20260507045524 | 11 | 154 | 0.0 | 3.2 | 0.00 | 0.03 | 0.03 | 99 | 1011.5 |
| 20260507045021 | 11 | 155 | 6.4 | 8.0 | 0.00 | 0.03 | 0.03 | 99 | 1011.2 |
| 20260507044518 | 11 | 103 | 1.6 | 8.0 | 0.00 | 0.03 | 0.03 | 99 | 1011.3 |
| 20260507044015 | 12 | 281 | 6.4 | 11.3 | 0.00 | 0.03 | 0.03 | 99 | 1011.3 |
| 20260507043511 | 12 | 84 | 6.4 | 9.7 | 0.18 | 0.03 | 0.03 | 99 | 1011.2 |
| 20260507043008 | 12 | 243 | 3.2 | 4.8 | 0.18 | 0.03 | 0.03 | 99 | 1011.3 |
| 20260507042504 | 12 | 162 | 1.6 | 9.7 | 0.00 | 0.00 | 0.00 | 99 | 1011.2 |
| 20260507041959 | 12 | 121 | 0.0 | 1.6 | 0.00 | 0.00 | 0.00 | 99 | 1011.6 |
| 20260507041457 | 12 | 123 | 1.6 | 9.7 | 0.00 | 0.00 | 0.00 | 99 | 1011.4 |
| 20260507040954 | 12 | 145 | 3.2 | 3.2 | 0.00 | 0.00 | 0.00 | 99 | 1011.3 |
| 20260507040449 | 12 | 153 | 1.6 | 8.0 | 0.00 | 0.00 | 0.00 | 99 | 1011.2 |
| 20260507035945 | 12 | 152 | 1.6 | 4.8 | 0.13 | 0.56 | 0.56 | 99 | 1011.5 |
| 20260507035442 | 13 | 163 | 3.2 | 4.8 | 0.13 | 0.56 | 0.56 | 99 | 1011.4 |
| 20260507034939 | 13 | 163 | 4.8 | 4.8 | 0.00 | 0.53 | 0.53 | 99 | 1011.4 |
| 20260507034436 | 13 | 150 | 3.2 | 4.8 | 0.18 | 0.53 | 0.53 | 99 | 1011.4 |
| 20260507033934 | 13 | 152 | 0.0 | 1.6 | 0.18 | 0.53 | 0.53 | 99 | 1011.3 |
| 20260507033431 | 13 | 152 | 1.6 | 3.2 | 0.00 | 0.51 | 0.51 | 99 | 1011.5 |
| 20260507032928 | 13 | 152 | 4.8 | 4.8 | 0.00 | 0.51 | 0.51 | 99 | 1011.4 |
| 20260507032425 | 13 | 154 | 3.2 | 4.8 | 0.00 | 0.51 | 0.51 | 99 | 1011.4 |
| 20260507031921 | 13 | 151 | 3.2 | 4.8 | 0.00 | 0.51 | 0.51 | 99 | 1011.1 |
| 20260507031418 | 13 | 155 | 1.6 | 3.2 | 0.00 | 0.51 | 0.51 | 99 | 1011.1 |
| 20260507030915 | 14 | 147 | 1.6 | 3.2 | 0.00 | 0.51 | 0.51 | 99 | 1011.2 |
| 20260507030412 | 14 | 149 | 1.6 | 8.0 | 0.00 | 0.51 | 0.51 | 99 | 1011.1 |
| 20260507025909 | 14 | 154 | 4.8 | 4.8 | 0.00 | 0.51 | 0.51 | 99 | 1011.2 |
| 20260507025406 | 14 | 178 | 3.2 | 9.7 | 0.00 | 0.51 | 0.51 | 99 | 1011.0 |
| 20260507024904 | 14 | 170 | 3.2 | 8.0 | 0.00 | 0.51 | 0.51 | 99 | 1011.0 |
| 20260507024401 | 14 | 146 | 4.8 | 11.3 | 0.00 | 0.51 | 0.51 | 99 | 1010.8 |
| 20260507023857 | 14 | 158 | 4.8 | 8.0 | 0.00 | 0.51 | 0.51 | 99 | 1010.9 |
| 20260507023354 | 14 | 175 | 4.8 | 9.7 | 0.00 | 0.51 | 0.51 | 99 | 1010.8 |
| 20260507022851 | 14 | 169 | 6.4 | 9.7 | 0.00 | 0.51 | 0.51 | 99 | 1010.9 |
| 20260507022347 | 14 | 174 | 6.4 | 8.0 | 0.00 | 0.51 | 0.51 | 99 | 1010.9 |
| 20260507021843 | 13 | 160 | 4.8 | 9.7 | 0.00 | 0.51 | 0.51 | 99 | 1010.5 |
| 20260507021339 | 13 | 156 | 3.2 | 4.8 | 0.00 | 0.51 | 0.51 | 99 | 1010.5 |
| 20260507020837 | 13 | 147 | 4.8 | 8.0 | 0.00 | 0.51 | 0.51 | 99 | 1010.6 |
| 20260507020333 | 13 | 148 | 3.2 | 9.7 | 0.00 | 0.51 | 0.51 | 99 | 1010.8 |
| 20260507015831 | 13 | 155 | 4.8 | 8.0 | 0.00 | 0.51 | 0.51 | 99 | 1010.5 |
| 20260507015329 | 13 | 181 | 8.0 | 16.1 | 0.00 | 0.51 | 0.51 | 99 | 1010.9 |
| 20260507014825 | 13 | 153 | 4.8 | 8.0 | 0.00 | 0.51 | 0.51 | 99 | 1010.6 |
| 20260507014321 | 13 | 150 | 6.4 | 8.0 | 0.00 | 0.51 | 0.51 | 99 | 1010.8 |
| 20260507013818 | 13 | 155 | 8.0 | 12.9 | 0.00 | 0.51 | 0.51 | 99 | 1010.6 |
| 20260507013315 | 13 | 167 | 8.0 | 16.1 | 0.00 | 0.51 | 0.51 | 99 | 1010.7 |
| 20260507012813 | 13 | 179 | 11.3 | 14.5 | 0.00 | 0.51 | 0.51 | 99 | 1010.6 |
| 20260507012308 | 13 | 153 | 6.4 | 8.0 | 0.00 | 0.51 | 0.51 | 99 | 1010.5 |
| 20260507011806 | 13 | 149 | 4.8 | 12.9 | 0.00 | 0.51 | 0.51 | 99 | 1010.4 |
| 20260507011302 | 13 | 130 | 8.0 | 12.9 | 0.00 | 0.51 | 0.51 | 99 | 1010.5 |
| 20260507010802 | 13 | 171 | 14.5 | 14.5 | 0.00 | 0.51 | 0.51 | 99 | 1010.5 |
| 20260507010258 | 13 | 146 | 6.4 | 12.9 | 0.00 | 0.51 | 0.51 | 99 | 1010.8 |
| 20260507005756 | 13 | 132 | 3.2 | 11.3 | 0.00 | 0.51 | 0.51 | 99 | 1010.9 |
| 20260507005252 | 13 | 148 | 8.0 | 14.5 | 0.00 | 0.51 | 0.51 | 99 | 1010.8 |
| 20260507004749 | 13 | 182 | 9.7 | 12.9 | 0.00 | 0.51 | 0.51 | 99 | 1010.8 |
| 20260507004246 | 13 | 140 | 4.8 | 9.7 | 0.00 | 0.51 | 0.51 | 99 | 1010.6 |
| 20260507003742 | 13 | 136 | 6.4 | 9.7 | 0.00 | 0.51 | 0.51 | 99 | 1010.9 |
| 20260507003238 | 13 | 144 | 4.8 | 24.1 | 0.00 | 0.51 | 0.51 | 99 | 1010.8 |
| 20260507002734 | 13 | 126 | 9.7 | 14.5 | 0.00 | 0.51 | 0.51 | 99 | 1010.9 |
| 20260507002230 | 13 | 141 | 4.8 | 11.3 | 0.00 | 0.51 | 0.51 | 99 | 1011.0 |
| 20260507001727 | 13 | 136 | 8.0 | 12.9 | 0.00 | 0.51 | 0.51 | 99 | 1010.9 |
| 20260507001225 | 13 | 153 | 4.8 | 22.5 | 0.00 | 0.51 | 0.51 | 99 | 1010.9 |
| 20260507000721 | 13 | 166 | 14.5 | 17.7 | 0.00 | 0.51 | 0.51 | 99 | 1010.7 |
| 20260507000216 | 13 | 139 | 6.4 | 11.3 | 0.00 | 0.51 | 0.51 | 99 | 1010.5 |
| 20260506235713 | 13 | 116 | 6.4 | 12.9 | 0.00 | 0.51 | 0.51 | 99 | 1010.7 |
| 20260506235209 | 13 | 126 | 4.8 | 9.7 | 0.00 | 0.51 | 0.51 | 99 | 1010.6 |
| 20260506234706 | 13 | 145 | 4.8 | 11.3 | 0.00 | 0.51 | 0.51 | 99 | 1010.6 |
| 20260506234203 | 13 | 157 | 6.4 | 12.9 | 0.00 | 0.51 | 0.51 | 99 | 1010.3 |
| 20260506233701 | 13 | 129 | 4.8 | 9.7 | 0.00 | 0.51 | 0.51 | 99 | 1010.5 |
| 20260506233157 | 13 | 132 | 3.2 | 11.3 | 0.00 | 0.51 | 0.51 | 99 | 1010.4 |
| 20260506232653 | 13 | 133 | 4.8 | 9.7 | 0.00 | 0.51 | 0.51 | 99 | 1010.2 |
| 20260506232148 | 13 | 141 | 6.4 | 11.3 | 0.00 | 0.51 | 0.51 | 99 | 1010.2 |
| 20260506231646 | 13 | 135 | 6.4 | 12.9 | 0.13 | 0.51 | 0.51 | 99 | 1010.5 |
| 20260506231145 | 13 | 135 | 6.4 | 9.7 | 0.30 | 0.51 | 0.51 | 99 | 1010.2 |
| 20260506230641 | 13 | 126 | 4.8 | 11.3 | 0.30 | 0.48 | 0.48 | 99 | 1010.1 |
| 20260506230138 | 13 | 145 | 4.8 | 8.0 | 0.13 | 0.46 | 0.46 | 99 | 1010.2 |
| 20260506225634 | 13 | 139 | 4.8 | 8.0 | 0.00 | 0.43 | 0.43 | 99 | 1010.2 |
| 20260506225131 | 14 | 152 | 4.8 | 11.3 | 0.00 | 0.43 | 0.43 | 99 | 1010.4 |
| 20260506224628 | 14 | 169 | 4.8 | 11.3 | 0.00 | 0.43 | 0.43 | 99 | 1010.3 |
| 20260506224124 | 14 | 159 | 8.0 | 12.9 | 0.18 | 0.43 | 0.43 | 99 | 1010.3 |
| 20260506223620 | 13 | 165 | 3.2 | 8.0 | 0.18 | 0.43 | 0.43 | 99 | 1010.3 |
| 20260506223116 | 13 | 140 | 3.2 | 4.8 | 0.13 | 0.41 | 0.41 | 99 | 1010.4 |
| 20260506222614 | 13 | 141 | 4.8 | 8.0 | 0.00 | 0.38 | 0.38 | 99 | 1010.5 |
| 20260506222110 | 13 | 143 | 1.6 | 8.0 | 0.00 | 0.38 | 0.38 | 99 | 1010.3 |
| 20260506221608 | 14 | 120 | 6.4 | 9.7 | 0.00 | 0.38 | 0.38 | 99 | 1010.7 |
| 20260506221106 | 14 | 148 | 6.4 | 11.3 | 0.00 | 0.38 | 0.38 | 99 | 1010.4 |
| 20260506220602 | 14 | 139 | 3.2 | 4.8 | 0.00 | 0.38 | 0.38 | 99 | 1010.2 |
| 20260506220057 | 14 | 127 | 4.8 | 9.7 | 0.18 | 0.38 | 0.38 | 99 | 1010.5 |
| 20260506215554 | 14 | 132 | 1.6 | 12.9 | 0.18 | 0.38 | 0.38 | 99 | 1010.5 |
| 20260506215049 | 14 | 151 | 3.2 | 8.0 | 0.00 | 0.36 | 0.36 | 99 | 1010.7 |
| 20260506214547 | 14 | 133 | 1.6 | 9.7 | 0.00 | 0.36 | 0.36 | 99 | 1010.6 |
| 20260506214044 | 14 | 140 | 6.4 | 9.7 | 0.18 | 0.36 | 0.36 | 99 | 1010.4 |
| 20260506213543 | 14 | 140 | 4.8 | 16.1 | 0.18 | 0.36 | 0.36 | 99 | 1010.6 |
| 20260506213040 | 14 | 101 | 8.0 | 14.5 | 0.13 | 0.33 | 0.33 | 99 | 1010.5 |
| 20260506212536 | 14 | 128 | 4.8 | 11.3 | 0.13 | 0.33 | 0.33 | 99 | 1010.5 |
| 20260506212030 | 14 | 152 | 8.0 | 11.3 | 0.18 | 0.30 | 0.30 | 99 | 1010.7 |
| 20260506211527 | 14 | 123 | 4.8 | 9.7 | 0.18 | 0.30 | 0.30 | 99 | 1010.7 |
| 20260506211024 | 14 | 142 | 8.0 | 11.3 | 0.00 | 0.28 | 0.28 | 99 | 1010.7 |
| 20260506210521 | 14 | 86 | 9.7 | 16.1 | 0.00 | 0.28 | 0.28 | 99 | 1010.7 |
| 20260506210017 | 14 | 161 | 4.8 | 16.1 | 0.13 | 0.28 | 0.28 | 99 | 1010.9 |
| 20260506205514 | 14 | 138 | 8.0 | 14.5 | 0.13 | 0.28 | 0.28 | 99 | 1010.8 |
| 20260506205009 | 14 | 124 | 9.7 | 12.9 | 0.00 | 0.25 | 0.25 | 99 | 1010.8 |
| 20260506204508 | 14 | 125 | 6.4 | 11.3 | 0.18 | 0.25 | 0.25 | 99 | 1010.6 |
| 20260506204004 | 14 | 165 | 4.8 | 9.7 | 0.18 | 0.25 | 0.25 | 99 | 1011.1 |
| 20260506203503 | 14 | 127 | 4.8 | 9.7 | 0.00 | 0.23 | 0.23 | 99 | 1011.2 |
| 20260506202958 | 14 | 145 | 6.4 | 11.3 | 0.00 | 0.23 | 0.23 | 99 | 1011.0 |
| 20260506202456 | 14 | 166 | 8.0 | 11.3 | 0.00 | 0.23 | 0.23 | 99 | 1011.0 |
| 20260506201952 | 14 | 155 | 11.3 | 12.9 | 0.00 | 0.23 | 0.23 | 99 | 1011.1 |
| 20260506201450 | 14 | 168 | 4.8 | 9.7 | 0.00 | 0.23 | 0.23 | 99 | 1011.2 |
| 20260506200946 | 14 | 127 | 6.4 | 14.5 | 0.00 | 0.23 | 0.23 | 99 | 1011.0 |
| 20260506200443 | 14 | 135 | 6.4 | 12.9 | 0.13 | 0.23 | 0.23 | 99 | 1011.2 |
| 20260506195939 | 14 | 161 | 8.0 | 11.3 | 0.00 | 0.20 | 0.20 | 99 | 1011.0 |
| 20260506195436 | 14 | 156 | 6.4 | 20.9 | 0.00 | 0.20 | 0.20 | 99 | 1011.3 |
| 20260506194933 | 14 | 120 | 8.0 | 14.5 | 0.00 | 0.20 | 0.20 | 99 | 1011.3 |
| 20260506194430 | 14 | 150 | 9.7 | 11.3 | 0.00 | 0.20 | 0.20 | 99 | 1011.6 |
| 20260506193927 | 14 | 121 | 8.0 | 16.1 | 0.00 | 0.20 | 0.20 | 99 | 1011.7 |
| 20260506193424 | 14 | 158 | 8.0 | 12.9 | 0.00 | 0.20 | 0.20 | 99 | 1011.4 |
| 20260506192920 | 14 | 155 | 6.4 | 16.1 | 0.00 | 0.20 | 0.20 | 99 | 1011.5 |
| 20260506192417 | 15 | 141 | 8.0 | 9.7 | 0.18 | 0.20 | 0.20 | 99 | 1011.6 |
| 20260506191914 | 15 | 131 | 8.0 | 12.9 | 0.00 | 0.18 | 0.18 | 99 | 1011.4 |
| 20260506191410 | 15 | 133 | 6.4 | 9.7 | 0.13 | 0.18 | 0.18 | 99 | 1011.6 |
| 20260506190908 | 15 | 161 | 6.4 | 9.7 | 0.18 | 0.15 | 0.15 | 99 | 1011.6 |
| 20260506190404 | 15 | 140 | 4.8 | 12.9 | 0.18 | 0.15 | 0.15 | 99 | 1011.7 |
| 20260506185901 | 15 | 135 | 4.8 | 8.0 | 0.13 | 0.13 | 0.13 | 99 | 1011.7 |
| 20260506185358 | 15 | 153 | 6.4 | 8.0 | 0.13 | 0.13 | 0.13 | 99 | 1011.5 |
| 20260506184855 | 15 | 131 | 6.4 | 11.3 | 0.18 | 0.10 | 0.10 | 98 | 1011.7 |
| 20260506184352 | 15 | 116 | 9.7 | 14.5 | 0.18 | 0.10 | 0.10 | 97 | 1011.7 |
| 20260506183849 | 15 | 147 | 8.0 | 12.9 | 0.18 | 0.08 | 0.08 | 96 | 1011.6 |
| 20260506183344 | 15 | 134 | 4.8 | 11.3 | 0.13 | 0.05 | 0.05 | 96 | 1011.9 |
| 20260506182842 | 15 | 148 | 4.8 | 14.5 | 0.13 | 0.05 | 0.05 | 94 | 1011.9 |
| 20260506182339 | 16 | 154 | 8.0 | 11.3 | 0.18 | 0.03 | 0.03 | 93 | 1012.0 |
| 20260506181836 | 16 | 187 | 9.7 | 11.3 | 0.18 | 0.03 | 0.03 | 91 | 1012.0 |
| 20260506181335 | 16 | 168 | 9.7 | 14.5 | 0.00 | 0.00 | 0.00 | 89 | 1012.2 |
| 20260506180831 | 17 | 140 | 6.4 | 11.3 | 0.00 | 0.00 | 0.00 | 88 | 1012.3 |
| 20260506180327 | 17 | 121 | 8.0 | 12.9 | 0.00 | 0.00 | 0.00 | 86 | 1012.4 |
| 20260506175823 | 17 | 136 | 8.0 | 17.7 | 0.00 | 0.00 | 0.00 | 84 | 1012.4 |
| 20260506175321 | 17 | 164 | 9.7 | 17.7 | 0.00 | 0.00 | 0.00 | 82 | 1012.6 |
| 20260506174818 | 17 | 147 | 11.3 | 20.9 | 0.00 | 0.00 | 0.00 | 81 | 1012.3 |
| 20260506174315 | 18 | 128 | 8.0 | 20.9 | 0.00 | 0.00 | 0.00 | 80 | 1012.5 |
| 20260506173812 | 18 | 139 | 11.3 | 17.7 | 0.00 | 0.00 | 0.00 | 78 | 1012.5 |
| 20260506173309 | 19 | 173 | 20.9 | 25.7 | 0.00 | 0.00 | 0.00 | 76 | 1012.8 |
| 20260506172806 | 20 | 119 | 9.7 | 11.3 | 0.00 | 0.00 | 0.00 | 73 | 1012.5 |
| 20260506172306 | 20 | 179 | 12.9 | 22.5 | 0.00 | 0.00 | 0.00 | 72 | 1012.5 |
| 20260506171800 | 20 | 126 | 9.7 | 14.5 | 0.00 | 0.00 | 0.00 | 70 | 1012.5 |
| 20260506171257 | 20 | 119 | 11.3 | 22.5 | 0.00 | 0.00 | 0.00 | 69 | 1012.4 |
| 20260506170755 | 20 | 131 | 8.0 | 17.7 | 0.00 | 0.00 | 0.00 | 69 | 1012.4 |
| 20260506170251 | 20 | 124 | 14.5 | 20.9 | 0.00 | 0.00 | 0.00 | 69 | 1012.3 |
| 20260506165750 | 20 | 127 | 11.3 | 24.1 | 0.00 | 0.00 | 0.00 | 69 | 1012.2 |
| 20260506165247 | 21 | 155 | 17.7 | 24.1 | 0.00 | 0.00 | 0.00 | 67 | 1012.2 |
| 20260506164744 | 21 | 119 | 17.7 | 24.1 | 0.00 | 0.00 | 0.00 | 66 | 1012.3 |
| 20260506164240 | 21 | 134 | 14.5 | 22.5 | 0.00 | 0.00 | 0.00 | 65 | 1012.3 |
| 20260506163737 | 21 | 189 | 17.7 | 24.1 | 0.00 | 0.00 | 0.00 | 65 | 1012.3 |
| 20260506163232 | 21 | 174 | 14.5 | 25.7 | 0.00 | 0.00 | 0.00 | 66 | 1012.3 |
| 20260506162728 | 21 | 158 | 22.5 | 35.4 | 0.00 | 0.00 | 0.00 | 65 | 1012.5 |
| 20260506162226 | 20 | 113 | 6.4 | 20.9 | 0.00 | 0.00 | 0.00 | 68 | 1012.5 |
| 20260506161723 | 20 | 176 | 16.1 | 25.7 | 0.00 | 0.00 | 0.00 | 68 | 1013.0 |
| 20260506161220 | 21 | 157 | 8.0 | 12.9 | 0.00 | 0.00 | 0.00 | 68 | 1012.8 |
| 20260506160718 | 21 | 153 | 9.7 | 14.5 | 0.00 | 0.00 | 0.00 | 68 | 1013.0 |
| 20260506160214 | 21 | 123 | 8.0 | 17.7 | 0.00 | 0.00 | 0.00 | 68 | 1012.9 |
| 20260506155713 | 21 | 179 | 17.7 | 20.9 | 0.00 | 0.00 | 0.00 | 67 | 1013.1 |
| 20260506155210 | 21 | 184 | 16.1 | 32.2 | 0.00 | 0.00 | 0.00 | 67 | 1013.1 |
| 20260506153312 | 21 | 128 | 19.3 | 29.0 | 0.00 | 0.00 | 0.00 | 67 | 1013.1 |
| 20260506152808 | 21 | 114 | 17.7 | 27.4 | 0.00 | 0.00 | 0.00 | 67 | 1013.1 |
| 20260506152306 | 21 | 103 | 11.3 | 20.9 | 0.00 | 0.00 | 0.00 | 68 | 1013.5 |
| 20260506151805 | 20 | 139 | 27.4 | 35.4 | 0.00 | 0.00 | 0.00 | 67 | 1013.3 |
| 20260506151301 | 21 | 148 | 9.7 | 20.9 | 0.00 | 0.00 | 0.00 | 68 | 1013.4 |
| 20260506150758 | 20 | 157 | 8.0 | 16.1 | 0.00 | 0.00 | 0.00 | 69 | 1013.7 |
| 20260506150303 | 20 | 173 | 6.4 | 29.0 | 0.00 | 0.00 | 0.00 | 69 | 1013.6 |
| 20260506145751 | 20 | 185 | 17.7 | 33.8 | 0.00 | 0.00 | 0.00 | 69 | 1013.7 |
| 20260506145248 | 20 | 133 | 16.1 | 24.1 | 0.00 | 0.00 | 0.00 | 70 | 1013.6 |
| 20260506144746 | 20 | 153 | 6.4 | 12.9 | 0.00 | 0.00 | 0.00 | 72 | 1013.7 |
| 20260506144242 | 20 | 167 | 16.1 | 17.7 | 0.00 | 0.00 | 0.00 | 73 | 1013.5 |
| 20260506143740 | 19 | 126 | 11.3 | 20.9 | 0.00 | 0.00 | 0.00 | 73 | 1013.6 |
| 20260506143237 | 19 | 153 | 11.3 | 14.5 | 0.00 | 0.00 | 0.00 | 74 | 1013.6 |
| 20260506142736 | 20 | 125 | 8.0 | 20.9 | 0.00 | 0.00 | 0.00 | 73 | 1013.8 |
| 20260506142233 | 19 | 84 | 19.3 | 25.7 | 0.00 | 0.00 | 0.00 | 74 | 1013.8 |
| 20260506141731 | 19 | 145 | 12.9 | 22.5 | 0.00 | 0.00 | 0.00 | 74 | 1013.9 |
| 20260506141229 | 19 | 172 | 12.9 | 24.1 | 0.00 | 0.00 | 0.00 | 75 | 1013.6 |
| 20260506140727 | 19 | 133 | 11.3 | 27.4 | 0.00 | 0.00 | 0.00 | 75 | 1013.8 |
| 20260506140223 | 19 | 182 | 4.8 | 22.5 | 0.00 | 0.00 | 0.00 | 76 | 1013.6 |
| 20260506135720 | 19 | 143 | 12.9 | 24.1 | 0.00 | 0.00 | 0.00 | 77 | 1013.7 |
| 20260506135216 | 18 | 117 | 12.9 | 27.4 | 0.00 | 0.00 | 0.00 | 78 | 1013.5 |
| 20260506134714 | 18 | 141 | 16.1 | 29.0 | 0.00 | 0.00 | 0.00 | 78 | 1013.8 |
| 20260506134209 | 18 | 149 | 8.0 | 17.7 | 0.00 | 0.00 | 0.00 | 79 | 1013.7 |
| 20260506133707 | 18 | 157 | 9.7 | 35.4 | 0.00 | 0.00 | 0.00 | 79 | 1013.8 |
| 20260506133203 | 18 | 96 | 11.3 | 25.7 | 0.00 | 0.00 | 0.00 | 80 | 1013.8 |
| 20260506132701 | 18 | 177 | 14.5 | 20.9 | 0.00 | 0.00 | 0.00 | 80 | 1013.8 |
| 20260506132157 | 17 | 161 | 8.0 | 17.7 | 0.00 | 0.00 | 0.00 | 82 | 1013.8 |
| 20260506131655 | 17 | 150 | 24.1 | 38.6 | 0.00 | 0.00 | 0.00 | 82 | 1014.1 |
| 20260506131151 | 17 | 142 | 19.3 | 33.8 | 0.00 | 0.00 | 0.00 | 83 | 1014.1 |
| 20260506130648 | 17 | 163 | 11.3 | 20.9 | 0.00 | 0.00 | 0.00 | 83 | 1014.6 |
| 20260506130145 | 17 | 143 | 11.3 | 17.7 | 0.00 | 0.00 | 0.00 | 84 | 1014.5 |
| 20260506125643 | 16 | 147 | 12.9 | 17.7 | 0.00 | 0.00 | 0.00 | 85 | 1014.3 |
| 20260506125141 | 16 | 166 | 9.7 | 12.9 | 0.00 | 0.00 | 0.00 | 86 | 1014.2 |
| 20260506124639 | 16 | 125 | 6.4 | 12.9 | 0.00 | 0.00 | 0.00 | 87 | 1014.3 |
| 20260506124136 | 16 | 122 | 8.0 | 20.9 | 0.00 | 0.00 | 0.00 | 87 | 1014.4 |
| 20260506123633 | 16 | 123 | 4.8 | 12.9 | 0.00 | 0.00 | 0.00 | 86 | 1014.1 |
| 20260506123132 | 16 | 132 | 4.8 | 16.1 | 0.00 | 0.00 | 0.00 | 86 | 1014.2 |
| 20260506122628 | 16 | 125 | 6.4 | 16.1 | 0.00 | 0.00 | 0.00 | 88 | 1014.3 |
| 20260506122126 | 16 | 141 | 9.7 | 16.1 | 0.00 | 0.00 | 0.00 | 87 | 1014.5 |
| 20260506121624 | 15 | 124 | 8.0 | 14.5 | 0.00 | 0.00 | 0.00 | 89 | 1014.3 |
| 20260506121120 | 15 | 166 | 17.7 | 20.9 | 0.00 | 0.00 | 0.00 | 89 | 1014.7 |
| 20260506120618 | 15 | 137 | 11.3 | 24.1 | 0.00 | 0.00 | 0.00 | 90 | 1014.5 |
| 20260506120115 | 15 | 138 | 6.4 | 16.1 | 0.00 | 0.00 | 0.00 | 90 | 1014.3 |
| 20260506115614 | 15 | 155 | 4.8 | 8.0 | 0.00 | 0.00 | 0.00 | 90 | 1014.6 |
| 20260506115112 | 15 | 112 | 1.6 | 9.7 | 0.00 | 0.00 | 0.00 | 91 | 1014.4 |
| 20260506114608 | 15 | 112 | 4.8 | 8.0 | 0.00 | 0.00 | 0.00 | 91 | 1014.3 |
| 20260506114107 | 15 | 106 | 0.0 | 11.3 | 0.00 | 0.00 | 0.00 | 92 | 1014.7 |
| 20260506113604 | 14 | 218 | 6.4 | 8.0 | 0.00 | 0.00 | 0.00 | 92 | 1014.6 |
| 20260506113101 | 14 | 134 | 1.6 | 8.0 | 0.00 | 0.00 | 0.00 | 93 | 1014.7 |
| 20260506112557 | 13 | 165 | 4.8 | 8.0 | 0.00 | 0.00 | 0.00 | 94 | 1014.7 |
| 20260506112055 | 13 | 139 | 3.2 | 8.0 | 0.00 | 0.00 | 0.00 | 94 | 1014.8 |
| 20260506111553 | 13 | 132 | 3.2 | 8.0 | 0.00 | 0.00 | 0.00 | 93 | 1014.8 |
| 20260506111050 | 14 | 123 | 4.8 | 8.0 | 0.00 | 0.00 | 0.00 | 93 | 1015.0 |
| 20260506110548 | 14 | 132 | 6.4 | 11.3 | 0.00 | 0.00 | 0.00 | 93 | 1015.1 |
| 20260506110045 | 13 | 141 | 6.4 | 11.3 | 0.00 | 0.00 | 0.00 | 94 | 1014.9 |
| 20260506105541 | 13 | 135 | 3.2 | 9.7 | 0.00 | 0.00 | 0.00 | 94 | 1014.8 |
| 20260506105038 | 13 | 148 | 4.8 | 11.3 | 0.00 | 0.00 | 0.00 | 94 | 1014.8 |
| 20260506104536 | 13 | 151 | 4.8 | 9.7 | 0.00 | 0.00 | 0.00 | 94 | 1014.8 |
| 20260506104034 | 13 | 128 | 8.0 | 11.3 | 0.00 | 0.00 | 0.00 | 94 | 1014.8 |
| 20260506103531 | 13 | 145 | 3.2 | 9.7 | 0.00 | 0.00 | 0.00 | 95 | 1014.6 |
| 20260506103027 | 13 | 132 | 4.8 | 8.0 | 0.00 | 0.00 | 0.00 | 95 | 1014.4 |
| 20260506102526 | 13 | 130 | 6.4 | 12.9 | 0.00 | 0.00 | 0.00 | 95 | 1014.7 |
| 20260506102023 | 13 | 130 | 3.2 | 4.8 | 0.00 | 0.00 | 0.00 | 95 | 1014.6 |
| 20260506101519 | 13 | 144 | 4.8 | 8.0 | 0.00 | 0.00 | 0.00 | 95 | 1014.8 |
| 20260506101016 | 13 | 97 | 1.6 | 4.8 | 0.00 | 0.00 | 0.00 | 95 | 1014.6 |
| 20260506100515 | 13 | 156 | 4.8 | 11.3 | 0.00 | 0.00 | 0.00 | 94 | 1014.6 |
| 20260506100013 | 13 | 163 | 4.8 | 9.7 | 0.00 | 0.00 | 0.00 | 94 | 1014.4 |
| 20260506095511 | 13 | 134 | 4.8 | 9.7 | 0.00 | 0.00 | 0.00 | 94 | 1014.6 |
| 20260506095007 | 13 | 141 | 4.8 | 8.0 | 0.00 | 0.00 | 0.00 | 94 | 1014.6 |
| 20260506094505 | 13 | 168 | 6.4 | 11.3 | 0.00 | 0.00 | 0.00 | 94 | 1014.5 |
| 20260506094002 | 13 | 156 | 6.4 | 11.3 | 0.00 | 0.00 | 0.00 | 93 | 1014.5 |
| 20260506093501 | 13 | 157 | 9.7 | 14.5 | 0.00 | 0.00 | 0.00 | 94 | 1014.5 |
| 20260506092958 | 13 | 153 | 4.8 | 12.9 | 0.00 | 0.00 | 0.00 | 94 | 1014.4 |
| 20260506092455 | 13 | 148 | 4.8 | 8.0 | 0.00 | 0.00 | 0.00 | 93 | 1014.4 |
| 20260506091952 | 13 | 140 | 6.4 | 9.7 | 0.00 | 0.00 | 0.00 | 93 | 1014.4 |
| 20260506091451 | 13 | 149 | 4.8 | 11.3 | 0.00 | 0.00 | 0.00 | 93 | 1014.1 |
| 20260506090947 | 13 | 180 | 8.0 | 11.3 | 0.00 | 0.00 | 0.00 | 93 | 1014.4 |
| 20260506090445 | 13 | 140 | 6.4 | 11.3 | 0.00 | 0.00 | 0.00 | 93 | 1014.6 |
| 20260506085941 | 13 | 132 | 4.8 | 9.7 | 0.00 | 0.00 | 0.00 | 92 | 1014.2 |
| 20260506085438 | 13 | 152 | 9.7 | 14.5 | 0.00 | 0.00 | 0.00 | 93 | 1014.5 |
| 20260506084934 | 13 | 178 | 6.4 | 8.0 | 0.00 | 0.00 | 0.00 | 93 | 1014.6 |
| 20260506084431 | 13 | 120 | 4.8 | 8.0 | 0.00 | 0.00 | 0.00 | 92 | 1014.5 |